createdAt,value
2018-08-31T00:00:43.876Z,0.00
2018-08-31T00:01:43.803Z,0.00
2018-08-31T00:02:43.729Z,0.00
2018-08-31T00:03:43.655Z,0.00
2018-08-31T00:04:43.582Z,0.00
2018-08-31T00:05:43.509Z,0.00
2018-08-31T00:06:43.433Z,0.00
2018-08-31T00:07:43.361Z,0.00
2018-08-31T00:08:43.287Z,0.00
2018-08-31T00:09:43.211Z,0.00
2018-08-31T00:10:43.138Z,0.00
2018-08-31T00:11:43.066Z,0.00
2018-08-31T00:12:42.994Z,0.00
2018-08-31T00:13:42.917Z,0.00
2018-08-31T00:14:42.844Z,0.00
2018-08-31T00:15:42.770Z,0.00
2018-08-31T00:16:42.697Z,0.00
2018-08-31T00:17:42.622Z,0.00
2018-08-31T00:18:42.549Z,0.00
2018-08-31T00:19:42.474Z,0.00
2018-08-31T00:20:42.400Z,0.00
2018-08-31T00:21:42.325Z,0.00
2018-08-31T00:22:42.254Z,0.00
2018-08-31T00:23:42.181Z,0.00
2018-08-31T00:24:42.105Z,0.00
2018-08-31T00:25:42.031Z,0.00
2018-08-31T00:26:41.958Z,0.00
2018-08-31T00:27:41.885Z,0.00
2018-08-31T00:28:41.810Z,0.00
2018-08-31T00:29:41.736Z,0.00
2018-08-31T00:30:41.662Z,0.00
2018-08-31T00:31:41.589Z,0.00
2018-08-31T00:32:41.514Z,0.00
2018-08-31T00:33:41.440Z,0.00
2018-08-31T00:34:41.366Z,0.00
2018-08-31T00:35:41.293Z,0.00
2018-08-31T00:36:41.219Z,0.00
2018-08-31T00:37:41.144Z,0.00
2018-08-31T00:38:41.072Z,0.00
2018-08-31T00:39:40.998Z,0.00
2018-08-31T00:40:40.923Z,0.00
2018-08-31T00:41:40.850Z,0.00
2018-08-31T00:42:40.778Z,0.00
2018-08-31T00:43:40.702Z,0.00
2018-08-31T00:44:40.628Z,0.00
2018-08-31T00:45:40.554Z,0.00
2018-08-31T00:46:40.478Z,0.00
2018-08-31T00:47:40.406Z,0.00
2018-08-31T00:48:40.335Z,0.00
2018-08-31T00:49:40.259Z,0.00
2018-08-31T00:50:40.185Z,0.00
2018-08-31T00:51:40.111Z,0.00
2018-08-31T00:52:40.038Z,0.00
2018-08-31T00:53:39.962Z,0.00
2018-08-31T00:54:39.891Z,0.00
2018-08-31T00:55:39.817Z,0.00
2018-08-31T00:56:39.742Z,0.00
2018-08-31T00:57:39.668Z,0.00
2018-08-31T00:58:39.593Z,0.00
2018-08-31T00:59:39.521Z,0.00
2018-08-31T01:00:39.447Z,0.00
2018-08-31T01:01:39.372Z,0.00
2018-08-31T01:02:39.299Z,0.00
2018-08-31T01:03:39.227Z,0.00
2018-08-31T01:04:39.152Z,0.00
2018-08-31T01:05:39.079Z,0.00
2018-08-31T01:06:39.003Z,0.00
2018-08-31T01:07:38.928Z,0.00
2018-08-31T01:08:38.855Z,0.00
2018-08-31T01:09:38.782Z,0.00
2018-08-31T01:10:38.706Z,0.00
2018-08-31T01:11:38.632Z,0.00
2018-08-31T01:12:38.558Z,0.00
2018-08-31T01:13:38.484Z,0.00
2018-08-31T01:14:38.411Z,0.00
2018-08-31T01:15:38.341Z,0.00
2018-08-31T01:16:38.263Z,0.00
2018-08-31T01:17:38.187Z,0.00
2018-08-31T01:18:38.113Z,0.00
2018-08-31T01:19:38.043Z,0.00
2018-08-31T01:20:37.966Z,0.00
2018-08-31T01:21:37.890Z,0.00
2018-08-31T01:22:37.817Z,0.00
2018-08-31T01:23:37.743Z,0.00
2018-08-31T01:24:37.667Z,0.00
2018-08-31T01:25:37.592Z,0.00
2018-08-31T01:26:37.520Z,0.00
2018-08-31T01:27:37.446Z,0.00
2018-08-31T01:28:37.374Z,0.00
2018-08-31T01:29:37.296Z,0.00
2018-08-31T01:30:37.223Z,0.00
2018-08-31T01:31:37.149Z,0.00
2018-08-31T01:32:37.079Z,0.00
2018-08-31T01:33:36.999Z,0.00
2018-08-31T01:34:36.925Z,0.00
2018-08-31T01:35:36.856Z,0.00
2018-08-31T01:36:36.777Z,0.00
2018-08-31T01:37:36.703Z,0.00
2018-08-31T01:38:36.628Z,0.00
2018-08-31T01:39:36.554Z,0.00
2018-08-31T01:40:36.489Z,0.00
2018-08-31T01:41:36.405Z,0.00
2018-08-31T01:42:36.330Z,0.00
2018-08-31T01:43:36.256Z,0.00
2018-08-31T01:44:36.182Z,0.00
2018-08-31T01:45:36.107Z,0.00
2018-08-31T01:46:36.033Z,0.00
2018-08-31T01:47:35.958Z,0.00
2018-08-31T01:48:35.884Z,0.00
2018-08-31T01:49:35.812Z,0.00
2018-08-31T01:50:35.736Z,0.00
2018-08-31T01:51:35.661Z,0.00
2018-08-31T01:52:35.598Z,0.00
2018-08-31T01:53:35.512Z,0.00
2018-08-31T01:54:35.438Z,0.00
2018-08-31T01:55:35.363Z,0.00
2018-08-31T01:56:35.289Z,0.00
2018-08-31T01:57:35.214Z,0.00
2018-08-31T01:58:35.139Z,0.00
2018-08-31T01:59:35.066Z,0.00
2018-08-31T02:00:34.991Z,0.00
2018-08-31T02:01:34.916Z,0.00
2018-08-31T02:02:34.842Z,0.00
2018-08-31T02:03:34.766Z,0.00
2018-08-31T02:04:34.696Z,0.00
2018-08-31T02:05:34.619Z,0.00
2018-08-31T02:06:34.544Z,0.00
2018-08-31T02:07:34.469Z,0.00
2018-08-31T02:08:34.395Z,0.00
2018-08-31T02:09:34.322Z,0.00
2018-08-31T02:10:34.246Z,0.00
2018-08-31T02:11:34.172Z,0.00
2018-08-31T02:12:34.100Z,0.00
2018-08-31T02:13:34.023Z,0.00
2018-08-31T02:14:33.953Z,0.00
2018-08-31T02:15:33.875Z,0.00
2018-08-31T02:16:33.800Z,0.00
2018-08-31T02:17:33.726Z,0.00
2018-08-31T02:18:33.650Z,0.00
2018-08-31T02:19:33.579Z,0.00
2018-08-31T02:20:33.501Z,0.00
2018-08-31T02:21:33.430Z,0.00
2018-08-31T02:22:33.352Z,0.00
2018-08-31T02:23:33.278Z,0.00
2018-08-31T02:24:33.204Z,0.00
2018-08-31T02:25:33.130Z,0.00
2018-08-31T02:26:33.054Z,0.00
2018-08-31T02:27:32.979Z,0.00
2018-08-31T02:28:32.910Z,0.00
2018-08-31T02:29:32.831Z,0.00
2018-08-31T02:30:32.757Z,0.00
2018-08-31T02:31:32.680Z,0.00
2018-08-31T02:32:32.607Z,0.00
2018-08-31T02:33:32.531Z,0.00
2018-08-31T02:34:32.456Z,0.00
2018-08-31T02:35:32.383Z,0.00
2018-08-31T02:36:32.309Z,0.00
2018-08-31T02:37:32.235Z,0.00
2018-08-31T02:38:32.158Z,0.00
2018-08-31T02:39:32.085Z,0.00
2018-08-31T02:40:32.010Z,0.00
2018-08-31T02:41:31.934Z,0.00
2018-08-31T02:42:31.860Z,0.00
2018-08-31T02:43:31.785Z,0.00
2018-08-31T02:44:31.709Z,0.00
2018-08-31T02:45:31.634Z,0.00
2018-08-31T02:46:31.562Z,0.00
2018-08-31T02:47:31.485Z,0.00
2018-08-31T02:48:31.413Z,0.00
2018-08-31T02:49:31.338Z,0.00
2018-08-31T02:50:31.261Z,0.00
2018-08-31T02:51:31.186Z,0.00
2018-08-31T02:52:31.115Z,0.00
2018-08-31T02:53:31.035Z,0.00
2018-08-31T02:54:30.962Z,0.00
2018-08-31T02:55:30.886Z,0.00
2018-08-31T02:56:30.812Z,0.00
2018-08-31T02:57:30.736Z,0.00
2018-08-31T02:58:30.662Z,0.00
2018-08-31T02:59:30.591Z,0.00
2018-08-31T03:00:30.511Z,0.00
2018-08-31T03:01:30.437Z,0.00
2018-08-31T03:02:30.362Z,0.00
2018-08-31T03:03:30.287Z,0.00
2018-08-31T03:04:30.212Z,0.00
2018-08-31T03:05:30.139Z,0.00
2018-08-31T03:06:30.064Z,0.00
2018-08-31T03:07:29.987Z,0.00
2018-08-31T03:08:29.913Z,0.00
2018-08-31T03:09:29.837Z,0.00
2018-08-31T03:10:29.763Z,0.00
2018-08-31T03:11:29.737Z,0.00
2018-08-31T03:12:29.613Z,0.00
2018-08-31T03:13:29.537Z,0.00
2018-08-31T03:14:29.462Z,0.00
2018-08-31T03:15:29.391Z,0.00
2018-08-31T03:16:29.313Z,0.00
2018-08-31T03:17:29.238Z,0.00
2018-08-31T03:18:29.162Z,0.00
2018-08-31T03:19:29.088Z,0.00
2018-08-31T03:20:29.014Z,0.00
2018-08-31T03:21:29.005Z,0.00
2018-08-31T03:22:28.862Z,0.00
2018-08-31T03:23:28.793Z,0.00
2018-08-31T03:24:28.713Z,0.00
2018-08-31T03:25:28.637Z,0.00
2018-08-31T03:26:28.564Z,0.00
2018-08-31T03:27:28.489Z,0.00
2018-08-31T03:28:28.413Z,0.00
2018-08-31T03:29:28.389Z,0.00
2018-08-31T03:30:28.263Z,0.00
2018-08-31T03:31:28.189Z,0.00
2018-08-31T03:32:28.114Z,0.00
2018-08-31T03:33:28.041Z,0.00
2018-08-31T03:34:27.964Z,0.00
2018-08-31T03:35:27.888Z,0.00
2018-08-31T03:36:27.815Z,0.00
2018-08-31T03:37:27.738Z,0.00
2018-08-31T03:38:27.663Z,0.00
2018-08-31T03:39:27.588Z,0.00
2018-08-31T03:40:27.513Z,0.00
2018-08-31T03:41:27.440Z,0.00
2018-08-31T03:42:27.364Z,0.00
2018-08-31T03:43:27.289Z,0.00
2018-08-31T03:44:27.217Z,0.00
2018-08-31T03:45:27.138Z,0.00
2018-08-31T03:46:27.063Z,0.00
2018-08-31T03:47:26.989Z,0.00
2018-08-31T03:48:26.913Z,0.00
2018-08-31T03:49:26.843Z,0.00
2018-08-31T03:50:26.763Z,0.00
2018-08-31T03:51:26.690Z,0.00
2018-08-31T03:52:26.614Z,0.00
2018-08-31T03:53:26.538Z,0.00
2018-08-31T03:54:26.464Z,0.00
2018-08-31T03:55:26.390Z,0.00
2018-08-31T03:56:26.312Z,0.00
2018-08-31T03:57:26.238Z,0.00
2018-08-31T03:58:26.163Z,0.00
2018-08-31T03:59:26.093Z,0.00
2018-08-31T04:00:26.015Z,0.00
2018-08-31T04:01:25.941Z,0.00
2018-08-31T04:02:25.868Z,0.00
2018-08-31T04:03:25.791Z,0.00
2018-08-31T04:04:25.714Z,0.00
2018-08-31T04:05:25.640Z,0.00
2018-08-31T04:06:25.564Z,0.00
2018-08-31T04:07:25.490Z,0.00
2018-08-31T04:08:25.430Z,0.00
2018-08-31T04:09:25.338Z,0.00
2018-08-31T04:10:25.264Z,0.00
2018-08-31T04:11:25.190Z,0.00
2018-08-31T04:12:25.115Z,0.00
2018-08-31T04:13:25.038Z,0.00
2018-08-31T04:14:24.964Z,0.00
2018-08-31T04:15:24.889Z,0.00
2018-08-31T04:16:24.814Z,0.00
2018-08-31T04:17:24.745Z,0.00
2018-08-31T04:18:24.668Z,0.00
2018-08-31T04:19:24.589Z,0.00
2018-08-31T04:20:24.514Z,0.00
2018-08-31T04:21:24.438Z,0.00
2018-08-31T04:22:24.362Z,0.00
2018-08-31T04:23:24.288Z,0.00
2018-08-31T04:24:24.213Z,0.00
2018-08-31T04:25:24.137Z,0.00
2018-08-31T04:26:24.062Z,0.00
2018-08-31T04:27:23.987Z,0.00
2018-08-31T04:28:23.913Z,0.00
2018-08-31T04:29:23.837Z,0.00
2018-08-31T04:30:23.815Z,0.00
2018-08-31T04:31:23.686Z,0.00
2018-08-31T04:32:23.613Z,0.00
2018-08-31T04:33:23.537Z,0.00
2018-08-31T04:34:23.463Z,0.00
2018-08-31T04:35:23.386Z,0.00
2018-08-31T04:36:23.312Z,0.00
2018-08-31T04:37:23.236Z,0.00
2018-08-31T04:38:23.162Z,0.00
2018-08-31T04:39:23.087Z,0.00
2018-08-31T04:40:23.011Z,0.00
2018-08-31T04:41:22.939Z,0.00
2018-08-31T04:42:22.862Z,0.00
2018-08-31T04:43:22.786Z,0.00
2018-08-31T04:44:22.713Z,5.63
2018-08-31T04:45:22.636Z,5.63
2018-08-31T04:46:22.561Z,5.63
2018-08-31T04:47:22.486Z,5.63
2018-08-31T04:48:22.411Z,5.63
2018-08-31T04:49:22.336Z,5.63
2018-08-31T04:50:22.279Z,5.63
2018-08-31T04:51:22.189Z,5.63
2018-08-31T04:52:22.112Z,5.63
2018-08-31T04:53:22.036Z,5.63
2018-08-31T04:54:21.962Z,5.63
2018-08-31T04:55:21.884Z,5.63
2018-08-31T04:56:21.811Z,11.25
2018-08-31T04:57:21.738Z,11.25
2018-08-31T04:58:21.660Z,11.25
2018-08-31T04:59:21.586Z,16.88
2018-08-31T05:00:21.513Z,16.88
2018-08-31T05:01:21.436Z,16.88
2018-08-31T05:02:21.361Z,22.50
2018-08-31T05:03:21.286Z,22.50
2018-08-31T05:04:21.212Z,22.50
2018-08-31T05:05:21.136Z,22.50
2018-08-31T05:06:21.061Z,28.13
2018-08-31T05:07:20.986Z,28.13
2018-08-31T05:08:20.912Z,28.13
2018-08-31T05:09:20.838Z,28.13
2018-08-31T05:10:20.761Z,28.13
2018-08-31T05:11:20.787Z,28.13
2018-08-31T05:12:20.613Z,28.13
2018-08-31T05:13:20.537Z,33.75
2018-08-31T05:14:20.463Z,33.75
2018-08-31T05:15:20.389Z,33.75
2018-08-31T05:16:20.314Z,33.75
2018-08-31T05:17:20.239Z,33.75
2018-08-31T05:18:20.165Z,33.75
2018-08-31T05:19:20.091Z,33.75
2018-08-31T05:20:20.017Z,33.75
2018-08-31T05:21:19.940Z,39.38
2018-08-31T05:22:19.997Z,39.38
2018-08-31T05:23:19.791Z,45.00
2018-08-31T05:24:19.717Z,50.63
2018-08-31T05:25:19.641Z,50.63
2018-08-31T05:26:19.568Z,56.25
2018-08-31T05:27:19.493Z,56.25
2018-08-31T05:28:19.458Z,61.88
2018-08-31T05:29:19.343Z,61.88
2018-08-31T05:30:19.269Z,61.88
2018-08-31T05:31:19.195Z,56.25
2018-08-31T05:32:19.120Z,56.25
2018-08-31T05:33:19.046Z,56.25
2018-08-31T05:34:18.974Z,56.25
2018-08-31T05:35:18.897Z,61.88
2018-08-31T05:36:18.822Z,67.50
2018-08-31T05:37:18.748Z,67.50
2018-08-31T05:38:18.673Z,67.50
2018-08-31T05:39:18.599Z,67.50
2018-08-31T05:40:18.525Z,73.13
2018-08-31T05:41:18.450Z,73.13
2018-08-31T05:42:18.376Z,67.50
2018-08-31T05:43:18.301Z,67.50
2018-08-31T05:44:18.228Z,67.50
2018-08-31T05:45:18.152Z,73.13
2018-08-31T05:46:18.078Z,78.75
2018-08-31T05:47:18.004Z,78.75
2018-08-31T05:48:17.930Z,78.75
2018-08-31T05:49:17.858Z,78.75
2018-08-31T05:50:17.781Z,78.75
2018-08-31T05:51:17.707Z,73.13
2018-08-31T05:52:17.634Z,73.13
2018-08-31T05:53:17.559Z,73.13
2018-08-31T05:54:17.484Z,73.13
2018-08-31T05:55:17.411Z,73.13
2018-08-31T05:56:17.338Z,73.13
2018-08-31T05:57:17.262Z,73.13
2018-08-31T05:58:17.188Z,78.75
2018-08-31T05:59:17.115Z,84.38
2018-08-31T06:00:17.042Z,90.00
2018-08-31T06:01:16.967Z,95.63
2018-08-31T06:02:17.034Z,95.63
2018-08-31T06:03:16.818Z,90.00
2018-08-31T06:04:16.746Z,84.38
2018-08-31T06:05:16.671Z,78.75
2018-08-31T06:06:16.601Z,73.13
2018-08-31T06:07:16.524Z,67.50
2018-08-31T06:08:16.451Z,67.50
2018-08-31T06:09:16.379Z,67.50
2018-08-31T06:10:16.303Z,67.50
2018-08-31T06:11:16.230Z,67.50
2018-08-31T06:12:16.157Z,67.50
2018-08-31T06:13:16.082Z,73.13
2018-08-31T06:14:16.010Z,73.13
2018-08-31T06:15:15.934Z,73.13
2018-08-31T06:16:15.862Z,73.13
2018-08-31T06:17:15.784Z,73.13
2018-08-31T06:18:15.712Z,78.75
2018-08-31T06:19:15.639Z,84.38
2018-08-31T06:20:15.565Z,95.63
2018-08-31T06:21:15.499Z,106.88
2018-08-31T06:22:15.418Z,112.50
2018-08-31T06:23:15.343Z,123.75
2018-08-31T06:24:15.270Z,129.38
2018-08-31T06:25:15.194Z,135.00
2018-08-31T06:26:15.120Z,135.00
2018-08-31T06:27:15.098Z,140.63
2018-08-31T06:28:14.975Z,146.25
2018-08-31T06:29:14.900Z,146.25
2018-08-31T06:30:14.826Z,146.25
2018-08-31T06:31:14.752Z,146.25
2018-08-31T06:32:14.679Z,135.00
2018-08-31T06:33:14.604Z,135.00
2018-08-31T06:34:14.531Z,129.38
2018-08-31T06:35:14.464Z,129.38
2018-08-31T06:36:14.385Z,129.38
2018-08-31T06:37:14.309Z,129.38
2018-08-31T06:38:14.236Z,129.38
2018-08-31T06:39:14.163Z,129.38
2018-08-31T06:40:14.090Z,140.63
2018-08-31T06:41:14.016Z,146.25
2018-08-31T06:42:13.943Z,157.50
2018-08-31T06:43:13.868Z,168.75
2018-08-31T06:44:13.797Z,180.00
2018-08-31T06:45:13.723Z,196.88
2018-08-31T06:46:13.649Z,202.50
2018-08-31T06:47:13.574Z,202.50
2018-08-31T06:48:13.505Z,202.50
2018-08-31T06:49:13.427Z,202.50
2018-08-31T06:50:13.354Z,202.50
2018-08-31T06:51:13.283Z,196.88
2018-08-31T06:52:13.207Z,196.88
2018-08-31T06:53:13.136Z,196.88
2018-08-31T06:54:13.062Z,196.88
2018-08-31T06:55:12.988Z,196.88
2018-08-31T06:56:12.914Z,196.88
2018-08-31T06:57:12.841Z,196.88
2018-08-31T06:58:12.767Z,196.88
2018-08-31T06:59:12.694Z,202.50
2018-08-31T07:00:12.621Z,208.13
2018-08-31T07:01:12.547Z,219.38
2018-08-31T07:02:12.474Z,230.63
2018-08-31T07:03:12.401Z,241.88
2018-08-31T07:04:12.328Z,241.88
2018-08-31T07:05:12.258Z,247.50
2018-08-31T07:06:12.183Z,247.50
2018-08-31T07:07:12.109Z,253.13
2018-08-31T07:08:12.035Z,258.75
2018-08-31T07:09:11.961Z,270.00
2018-08-31T07:10:11.889Z,275.63
2018-08-31T07:11:11.816Z,286.88
2018-08-31T07:12:11.800Z,292.50
2018-08-31T07:13:11.670Z,298.13
2018-08-31T07:14:11.595Z,303.75
2018-08-31T07:15:11.523Z,303.75
2018-08-31T07:16:11.450Z,303.75
2018-08-31T07:17:11.375Z,303.75
2018-08-31T07:18:11.303Z,309.38
2018-08-31T07:19:11.266Z,303.75
2018-08-31T07:20:11.157Z,303.75
2018-08-31T07:21:11.083Z,303.75
2018-08-31T07:22:11.011Z,303.75
2018-08-31T07:23:10.938Z,309.38
2018-08-31T07:24:10.865Z,315.00
2018-08-31T07:25:10.791Z,309.38
2018-08-31T07:26:10.768Z,309.38
2018-08-31T07:27:10.646Z,309.38
2018-08-31T07:28:10.574Z,309.38
2018-08-31T07:29:10.500Z,315.00
2018-08-31T07:30:10.428Z,315.00
2018-08-31T07:31:10.355Z,315.00
2018-08-31T07:32:10.327Z,320.63
2018-08-31T07:33:10.210Z,326.25
2018-08-31T07:34:10.137Z,326.25
2018-08-31T07:35:10.064Z,326.25
2018-08-31T07:36:10.049Z,331.88
2018-08-31T07:37:09.919Z,343.13
2018-08-31T07:38:09.847Z,343.13
2018-08-31T07:39:09.774Z,337.50
2018-08-31T07:40:09.701Z,331.88
2018-08-31T07:41:09.628Z,326.25
2018-08-31T07:42:09.560Z,320.63
2018-08-31T07:43:09.483Z,315.00
2018-08-31T07:44:09.411Z,309.38
2018-08-31T07:45:09.339Z,309.38
2018-08-31T07:46:09.267Z,309.38
2018-08-31T07:47:09.195Z,315.00
2018-08-31T07:48:09.122Z,326.25
2018-08-31T07:49:09.050Z,343.13
2018-08-31T07:50:08.977Z,348.75
2018-08-31T07:51:08.905Z,360.00
2018-08-31T07:52:08.833Z,371.25
2018-08-31T07:53:08.760Z,376.88
2018-08-31T07:54:08.688Z,376.88
2018-08-31T07:55:08.616Z,376.88
2018-08-31T07:56:08.544Z,388.13
2018-08-31T07:57:08.470Z,393.75
2018-08-31T07:58:08.400Z,399.38
2018-08-31T07:59:08.328Z,410.63
2018-08-31T08:00:08.255Z,410.63
2018-08-31T08:01:08.183Z,410.63
2018-08-31T08:02:08.110Z,405.00
2018-08-31T08:03:08.039Z,399.38
2018-08-31T08:04:07.966Z,399.38
2018-08-31T08:05:07.894Z,388.13
2018-08-31T08:06:07.825Z,388.13
2018-08-31T08:07:07.750Z,388.13
2018-08-31T08:08:07.682Z,382.50
2018-08-31T08:09:07.606Z,376.88
2018-08-31T08:10:07.533Z,365.63
2018-08-31T08:11:07.462Z,360.00
2018-08-31T08:12:07.391Z,360.00
2018-08-31T08:13:07.318Z,365.63
2018-08-31T08:14:07.246Z,371.25
2018-08-31T08:15:07.175Z,376.88
2018-08-31T08:16:07.122Z,376.88
2018-08-31T08:17:07.030Z,365.63
2018-08-31T08:18:06.958Z,354.38
2018-08-31T08:19:06.890Z,337.50
2018-08-31T08:20:06.817Z,326.25
2018-08-31T08:21:06.744Z,326.25
2018-08-31T08:22:06.671Z,331.88
2018-08-31T08:23:06.600Z,337.50
2018-08-31T08:24:06.528Z,343.13
2018-08-31T08:25:06.455Z,343.13
2018-08-31T08:26:06.384Z,337.50
2018-08-31T08:27:06.313Z,337.50
2018-08-31T08:28:06.244Z,337.50
2018-08-31T08:29:06.169Z,343.13
2018-08-31T08:30:06.098Z,354.38
2018-08-31T08:31:06.027Z,354.38
2018-08-31T08:32:05.956Z,354.38
2018-08-31T08:33:05.884Z,354.38
2018-08-31T08:34:05.813Z,348.75
2018-08-31T08:35:05.738Z,354.38
2018-08-31T08:36:05.744Z,354.38
2018-08-31T08:37:05.595Z,354.38
2018-08-31T08:38:05.522Z,354.38
2018-08-31T08:39:05.452Z,348.75
2018-08-31T08:40:05.381Z,337.50
2018-08-31T08:41:05.311Z,331.88
2018-08-31T08:42:05.282Z,326.25
2018-08-31T08:43:05.167Z,326.25
2018-08-31T08:44:05.094Z,331.88
2018-08-31T08:45:05.022Z,337.50
2018-08-31T08:46:04.950Z,348.75
2018-08-31T08:47:04.879Z,360.00
2018-08-31T08:48:04.877Z,365.63
2018-08-31T08:49:04.736Z,371.25
2018-08-31T08:50:04.665Z,371.25
2018-08-31T08:51:04.594Z,371.25
2018-08-31T08:52:04.521Z,365.63
2018-08-31T08:53:04.449Z,360.00
2018-08-31T08:54:04.377Z,348.75
2018-08-31T08:55:04.307Z,331.88
2018-08-31T08:56:04.233Z,309.38
2018-08-31T08:57:04.162Z,298.13
2018-08-31T08:58:04.111Z,275.63
2018-08-31T08:59:04.020Z,264.38
2018-08-31T09:00:03.949Z,264.38
2018-08-31T09:01:03.875Z,270.00
2018-08-31T09:02:03.805Z,281.25
2018-08-31T09:03:03.733Z,292.50
2018-08-31T09:04:03.662Z,315.00
2018-08-31T09:05:03.590Z,320.63
2018-08-31T09:06:03.518Z,326.25
2018-08-31T09:07:03.447Z,326.25
2018-08-31T09:08:03.376Z,320.63
2018-08-31T09:09:03.307Z,303.75
2018-08-31T09:10:03.231Z,303.75
2018-08-31T09:11:03.161Z,315.00
2018-08-31T09:12:03.178Z,326.25
2018-08-31T09:13:03.018Z,343.13
2018-08-31T09:14:02.947Z,360.00
2018-08-31T09:15:02.875Z,371.25
2018-08-31T09:16:02.803Z,382.50
2018-08-31T09:17:02.732Z,393.75
2018-08-31T09:18:02.660Z,416.25
2018-08-31T09:19:02.589Z,438.75
2018-08-31T09:20:02.517Z,461.25
2018-08-31T09:21:02.446Z,472.50
2018-08-31T09:22:02.375Z,478.13
2018-08-31T09:23:02.304Z,483.75
2018-08-31T09:24:02.234Z,478.13
2018-08-31T09:25:02.161Z,472.50
2018-08-31T09:26:02.090Z,466.88
2018-08-31T09:27:02.019Z,461.25
2018-08-31T09:28:01.948Z,438.75
2018-08-31T09:29:01.876Z,427.50
2018-08-31T09:30:01.805Z,427.50
2018-08-31T09:31:01.739Z,427.50
2018-08-31T09:32:01.663Z,433.13
2018-08-31T09:33:01.595Z,438.75
2018-08-31T09:34:01.525Z,450.00
2018-08-31T09:35:01.453Z,455.63
2018-08-31T09:36:01.379Z,450.00
2018-08-31T09:37:01.307Z,438.75
2018-08-31T09:38:01.238Z,444.38
2018-08-31T09:39:01.167Z,455.63
2018-08-31T09:40:01.095Z,461.25
2018-08-31T09:41:01.025Z,489.38
2018-08-31T09:42:00.953Z,500.63
2018-08-31T09:43:00.882Z,489.38
2018-08-31T09:44:01.048Z,472.50
2018-08-31T09:45:00.742Z,466.88
2018-08-31T09:46:00.671Z,450.00
2018-08-31T09:47:00.600Z,427.50
2018-08-31T09:48:00.529Z,399.38
2018-08-31T09:49:00.457Z,371.25
2018-08-31T09:50:00.389Z,360.00
2018-08-31T09:51:00.316Z,348.75
2018-08-31T09:52:00.245Z,343.13
2018-08-31T09:53:00.174Z,343.13
2018-08-31T09:54:00.102Z,343.13
2018-08-31T09:55:00.032Z,343.13
2018-08-31T09:55:59.962Z,348.75
2018-08-31T09:56:59.889Z,360.00
2018-08-31T09:57:59.819Z,371.25
2018-08-31T09:58:59.747Z,382.50
2018-08-31T09:59:59.676Z,399.38
2018-08-31T10:00:59.605Z,399.38
2018-08-31T10:01:59.533Z,399.38
2018-08-31T10:02:59.467Z,399.38
2018-08-31T10:03:59.394Z,399.38
2018-08-31T10:04:59.321Z,399.38
2018-08-31T10:05:59.249Z,405.00
2018-08-31T10:06:59.179Z,410.63
2018-08-31T10:07:59.108Z,416.25
2018-08-31T10:08:59.035Z,421.88
2018-08-31T10:09:58.964Z,427.50
2018-08-31T10:10:58.896Z,433.13
2018-08-31T10:11:58.826Z,438.75
2018-08-31T10:12:58.800Z,444.38
2018-08-31T10:13:58.680Z,450.00
2018-08-31T10:14:58.609Z,455.63
2018-08-31T10:15:58.538Z,455.63
2018-08-31T10:16:58.466Z,461.25
2018-08-31T10:17:58.397Z,461.25
2018-08-31T10:18:58.326Z,461.25
2018-08-31T10:19:58.254Z,466.88
2018-08-31T10:20:58.184Z,450.00
2018-08-31T10:21:58.112Z,438.75
2018-08-31T10:22:58.041Z,421.88
2018-08-31T10:23:57.972Z,410.63
2018-08-31T10:24:57.899Z,393.75
2018-08-31T10:25:57.828Z,388.13
2018-08-31T10:26:57.758Z,405.00
2018-08-31T10:27:57.687Z,427.50
2018-08-31T10:28:57.614Z,483.75
2018-08-31T10:29:57.596Z,540.00
2018-08-31T10:30:57.474Z,585.00
2018-08-31T10:31:57.405Z,613.13
2018-08-31T10:32:57.332Z,624.38
2018-08-31T10:33:57.262Z,658.13
2018-08-31T10:34:57.190Z,686.25
2018-08-31T10:35:57.121Z,686.25
2018-08-31T10:36:57.052Z,669.38
2018-08-31T10:37:56.982Z,675.00
2018-08-31T10:38:56.909Z,697.50
2018-08-31T10:39:56.838Z,731.25
2018-08-31T10:40:56.767Z,765.00
2018-08-31T10:41:56.697Z,770.63
2018-08-31T10:42:56.627Z,781.88
2018-08-31T10:43:56.559Z,826.88
2018-08-31T10:44:56.486Z,871.88
2018-08-31T10:45:56.417Z,978.75
2018-08-31T10:46:56.346Z,905.63
2018-08-31T10:47:56.277Z,849.38
2018-08-31T10:48:56.208Z,995.63
2018-08-31T10:49:56.135Z,776.25
2018-08-31T10:50:56.066Z,781.88
2018-08-31T10:51:55.996Z,838.13
2018-08-31T10:52:55.928Z,967.50
2018-08-31T10:53:55.855Z,1147.50
2018-08-31T10:54:55.785Z,1170.00
2018-08-31T10:55:55.716Z,1108.13
2018-08-31T10:56:55.645Z,1080.00
2018-08-31T10:57:55.576Z,1186.88
2018-08-31T10:58:55.506Z,1119.38
2018-08-31T10:59:55.436Z,1181.25
2018-08-31T11:00:55.367Z,1102.50
2018-08-31T11:01:55.298Z,984.38
2018-08-31T11:02:55.228Z,984.38
2018-08-31T11:03:55.211Z,995.63
2018-08-31T11:04:55.089Z,1001.25
2018-08-31T11:05:55.021Z,995.63
2018-08-31T11:06:54.952Z,1006.88
2018-08-31T11:07:54.883Z,1001.25
2018-08-31T11:08:54.813Z,990.00
2018-08-31T11:09:54.746Z,967.50
2018-08-31T11:10:54.678Z,978.75
2018-08-31T11:11:54.607Z,939.38
2018-08-31T11:12:54.592Z,877.50
2018-08-31T11:13:54.469Z,787.50
2018-08-31T11:14:54.400Z,765.00
2018-08-31T11:15:54.331Z,742.50
2018-08-31T11:16:54.262Z,742.50
2018-08-31T11:17:54.194Z,736.88
2018-08-31T11:18:54.155Z,675.00
2018-08-31T11:19:54.056Z,607.50
2018-08-31T11:20:53.987Z,573.75
2018-08-31T11:21:53.921Z,534.38
2018-08-31T11:22:53.852Z,556.88
2018-08-31T11:23:53.782Z,573.75
2018-08-31T11:24:53.711Z,556.88
2018-08-31T11:25:53.643Z,568.13
2018-08-31T11:26:53.575Z,618.75
2018-08-31T11:27:53.639Z,646.88
2018-08-31T11:28:53.435Z,630.00
2018-08-31T11:29:53.367Z,601.88
2018-08-31T11:30:53.297Z,579.38
2018-08-31T11:31:53.228Z,562.50
2018-08-31T11:32:53.158Z,562.50
2018-08-31T11:33:53.093Z,573.75
2018-08-31T11:34:53.024Z,613.13
2018-08-31T11:35:52.952Z,646.88
2018-08-31T11:36:52.882Z,697.50
2018-08-31T11:37:52.814Z,781.88
2018-08-31T11:38:52.744Z,849.38
2018-08-31T11:39:52.675Z,1063.13
2018-08-31T11:40:52.605Z,2334.38
2018-08-31T11:41:52.536Z,2497.50
2018-08-31T11:42:52.466Z,1591.88
2018-08-31T11:43:52.399Z,1091.25
2018-08-31T11:44:52.329Z,2660.63
2018-08-31T11:45:52.260Z,1130.63
2018-08-31T11:46:52.196Z,984.38
2018-08-31T11:47:52.124Z,939.38
2018-08-31T11:48:52.053Z,810.00
2018-08-31T11:49:51.986Z,736.88
2018-08-31T11:50:51.918Z,703.13
2018-08-31T11:51:51.850Z,680.63
2018-08-31T11:52:51.782Z,697.50
2018-08-31T11:53:51.714Z,725.63
2018-08-31T11:54:51.645Z,911.25
2018-08-31T11:55:51.580Z,843.75
2018-08-31T11:56:51.508Z,793.13
2018-08-31T11:57:51.440Z,815.63
2018-08-31T11:58:51.374Z,922.50
2018-08-31T11:59:51.304Z,888.75
2018-08-31T12:00:51.235Z,900.00
2018-08-31T12:01:51.179Z,933.75
2018-08-31T12:02:51.098Z,939.38
2018-08-31T12:03:51.029Z,798.75
2018-08-31T12:04:50.960Z,742.50
2018-08-31T12:05:50.892Z,663.75
2018-08-31T12:06:50.823Z,607.50
2018-08-31T12:07:50.826Z,573.75
2018-08-31T12:08:50.687Z,545.63
2018-08-31T12:09:50.621Z,545.63
2018-08-31T12:10:50.550Z,585.00
2018-08-31T12:11:50.483Z,663.75
2018-08-31T12:12:50.416Z,826.88
2018-08-31T12:13:50.345Z,933.75
2018-08-31T12:14:50.275Z,950.63
2018-08-31T12:15:50.207Z,1147.50
2018-08-31T12:16:50.138Z,1333.13
2018-08-31T12:17:50.069Z,1451.25
2018-08-31T12:18:50.002Z,2795.63
2018-08-31T12:19:49.934Z,2446.88
2018-08-31T12:20:49.869Z,2576.25
2018-08-31T12:21:49.796Z,1023.75
2018-08-31T12:22:49.730Z,1575.00
2018-08-31T12:23:49.661Z,1428.75
2018-08-31T12:24:49.594Z,866.25
2018-08-31T12:25:49.528Z,776.25
2018-08-31T12:26:49.459Z,731.25
2018-08-31T12:27:49.390Z,2221.88
2018-08-31T12:28:49.324Z,1659.38
2018-08-31T12:29:49.255Z,680.63
2018-08-31T12:30:49.189Z,551.25
2018-08-31T12:31:49.121Z,540.00
2018-08-31T12:32:49.055Z,568.13
2018-08-31T12:33:48.986Z,585.00
2018-08-31T12:34:48.918Z,618.75
2018-08-31T12:35:48.852Z,635.63
2018-08-31T12:36:48.783Z,641.25
2018-08-31T12:37:48.715Z,652.50
2018-08-31T12:38:48.648Z,658.13
2018-08-31T12:39:48.579Z,646.88
2018-08-31T12:40:48.511Z,630.00
2018-08-31T12:41:48.442Z,618.75
2018-08-31T12:42:48.376Z,618.75
2018-08-31T12:43:48.356Z,641.25
2018-08-31T12:44:48.237Z,663.75
2018-08-31T12:45:48.169Z,725.63
2018-08-31T12:46:48.102Z,883.13
2018-08-31T12:47:48.034Z,1372.50